sensor_id;sensor_type;location;lat;lon;timestamp;P1;durP1;ratioP1;P2;durP2;ratioP2
68250;SDS011;55066;51.560;4.642;2023-04-03T00:01:35;10.40;;;4.90;;
68250;SDS011;55066;51.560;4.642;2023-04-03T00:04:03;10.63;;;4.80;;
68250;SDS011;55066;51.560;4.642;2023-04-03T00:06:29;9.82;;;4.47;;
68250;SDS011;55066;51.560;4.642;2023-04-03T00:08:55;9.47;;;4.07;;
68250;SDS011;55066;51.560;4.642;2023-04-03T00:11:20;7.85;;;3.95;;
68250;SDS011;55066;51.560;4.642;2023-04-03T00:13:46;9.70;;;3.83;;
68250;SDS011;55066;51.560;4.642;2023-04-03T00:16:12;8.93;;;4.23;;
68250;SDS011;55066;51.560;4.642;2023-04-03T00:18:38;9.02;;;3.80;;
68250;SDS011;55066;51.560;4.642;2023-04-03T00:21:04;12.10;;;4.60;;
68250;SDS011;55066;51.560;4.642;2023-04-03T00:23:30;7.67;;;3.63;;
68250;SDS011;55066;51.560;4.642;2023-04-03T00:25:56;9.40;;;3.60;;
68250;SDS011;55066;51.560;4.642;2023-04-03T00:28:22;7.13;;;3.43;;
68250;SDS011;55066;51.560;4.642;2023-04-03T00:30:50;7.28;;;3.55;;
68250;SDS011;55066;51.560;4.642;2023-04-03T00:33:17;8.02;;;3.60;;
68250;SDS011;55066;51.560;4.642;2023-04-03T00:35:46;9.48;;;3.60;;
68250;SDS011;55066;51.560;4.642;2023-04-03T00:38:13;10.35;;;3.30;;
68250;SDS011;55066;51.560;4.642;2023-04-03T00:40:41;10.48;;;3.70;;
68250;SDS011;55066;51.560;4.642;2023-04-03T00:43:11;9.17;;;3.33;;
68250;SDS011;55066;51.560;4.642;2023-04-03T00:45:41;7.55;;;3.17;;
68250;SDS011;55066;51.560;4.642;2023-04-03T00:48:10;6.10;;;2.90;;
68250;SDS011;55066;51.560;4.642;2023-04-03T00:50:39;6.20;;;3.38;;
68250;SDS011;55066;51.560;4.642;2023-04-03T00:53:09;8.10;;;2.97;;
68250;SDS011;55066;51.560;4.642;2023-04-03T00:55:39;6.77;;;2.60;;
68250;SDS011;55066;51.560;4.642;2023-04-03T00:58:07;8.13;;;3.38;;
68250;SDS011;55066;51.560;4.642;2023-04-03T01:00:33;7.55;;;3.20;;
68250;SDS011;55066;51.560;4.642;2023-04-03T01:03:02;8.85;;;3.20;;
68250;SDS011;55066;51.560;4.642;2023-04-03T01:05:28;7.78;;;3.05;;
68250;SDS011;55066;51.560;4.642;2023-04-03T01:07:54;9.37;;;3.03;;
68250;SDS011;55066;51.560;4.642;2023-04-03T01:10:20;8.88;;;3.25;;
68250;SDS011;55066;51.560;4.642;2023-04-03T01:12:47;7.77;;;3.13;;
68250;SDS011;55066;51.560;4.642;2023-04-03T01:15:16;5.70;;;2.72;;
68250;SDS011;55066;51.560;4.642;2023-04-03T01:17:46;7.40;;;2.70;;
68250;SDS011;55066;51.560;4.642;2023-04-03T01:23:07;7.85;;;2.83;;
68250;SDS011;55066;51.560;4.642;2023-04-03T01:25:52;5.73;;;2.50;;
68250;SDS011;55066;51.560;4.642;2023-04-03T01:28:21;6.43;;;2.85;;
68250;SDS011;55066;51.560;4.642;2023-04-03T01:30:51;7.97;;;2.95;;
68250;SDS011;55066;51.560;4.642;2023-04-03T01:33:18;5.68;;;2.70;;
68250;SDS011;55066;51.560;4.642;2023-04-03T01:35:45;5.70;;;2.53;;
68250;SDS011;55066;51.560;4.642;2023-04-03T01:38:11;6.90;;;3.10;;
68250;SDS011;55066;51.560;4.642;2023-04-03T01:40:37;6.40;;;3.17;;
68250;SDS011;55066;51.560;4.642;2023-04-03T01:43:02;5.65;;;2.60;;
68250;SDS011;55066;51.560;4.642;2023-04-03T01:45:28;7.50;;;3.17;;
68250;SDS011;55066;51.560;4.642;2023-04-03T01:47:53;8.60;;;2.60;;
68250;SDS011;55066;51.560;4.642;2023-04-03T01:50:19;6.72;;;2.92;;
68250;SDS011;55066;51.560;4.642;2023-04-03T01:52:46;6.90;;;2.87;;
68250;SDS011;55066;51.560;4.642;2023-04-03T01:55:12;8.32;;;2.50;;
68250;SDS011;55066;51.560;4.642;2023-04-03T01:57:38;6.30;;;2.40;;
68250;SDS011;55066;51.560;4.642;2023-04-03T02:00:03;6.60;;;2.93;;
68250;SDS011;55066;51.560;4.642;2023-04-03T02:02:38;7.82;;;2.75;;
68250;SDS011;55066;51.560;4.642;2023-04-03T02:05:05;7.43;;;2.72;;
68250;SDS011;55066;51.560;4.642;2023-04-03T02:07:31;7.47;;;2.70;;
68250;SDS011;55066;51.560;4.642;2023-04-03T02:09:57;6.03;;;3.17;;
68250;SDS011;55066;51.560;4.642;2023-04-03T02:12:22;5.90;;;2.57;;
68250;SDS011;55066;51.560;4.642;2023-04-03T02:14:48;5.50;;;2.70;;
68250;SDS011;55066;51.560;4.642;2023-04-03T02:17:13;6.43;;;2.70;;
68250;SDS011;55066;51.560;4.642;2023-04-03T02:19:40;5.82;;;2.72;;
68250;SDS011;55066;51.560;4.642;2023-04-03T02:22:05;7.20;;;2.90;;
68250;SDS011;55066;51.560;4.642;2023-04-03T02:24:31;6.93;;;2.70;;
68250;SDS011;55066;51.560;4.642;2023-04-03T02:26:58;6.03;;;2.63;;
68250;SDS011;55066;51.560;4.642;2023-04-03T02:29:23;7.83;;;2.93;;
68250;SDS011;55066;51.560;4.642;2023-04-03T02:31:50;6.78;;;2.83;;
68250;SDS011;55066;51.560;4.642;2023-04-03T02:34:16;5.82;;;2.60;;
68250;SDS011;55066;51.560;4.642;2023-04-03T02:36:42;7.07;;;2.73;;
68250;SDS011;55066;51.560;4.642;2023-04-03T02:39:10;9.93;;;2.80;;
68250;SDS011;55066;51.560;4.642;2023-04-03T02:41:36;5.20;;;2.42;;
68250;SDS011;55066;51.560;4.642;2023-04-03T02:44:07;8.05;;;2.58;;
68250;SDS011;55066;51.560;4.642;2023-04-03T02:46:34;9.13;;;2.50;;
68250;SDS011;55066;51.560;4.642;2023-04-03T02:49:01;6.67;;;2.50;;
68250;SDS011;55066;51.560;4.642;2023-04-03T02:51:27;6.72;;;2.50;;
68250;SDS011;55066;51.560;4.642;2023-04-03T02:53:52;5.90;;;2.33;;
68250;SDS011;55066;51.560;4.642;2023-04-03T02:56:22;6.30;;;2.60;;
68250;SDS011;55066;51.560;4.642;2023-04-03T02:58:47;7.43;;;2.50;;
68250;SDS011;55066;51.560;4.642;2023-04-03T03:01:14;6.63;;;2.47;;
68250;SDS011;55066;51.560;4.642;2023-04-03T03:03:40;6.85;;;2.30;;
68250;SDS011;55066;51.560;4.642;2023-04-03T03:06:12;4.93;;;2.27;;
68250;SDS011;55066;51.560;4.642;2023-04-03T03:08:40;9.27;;;2.65;;
68250;SDS011;55066;51.560;4.642;2023-04-03T03:11:06;6.43;;;2.50;;
68250;SDS011;55066;51.560;4.642;2023-04-03T03:13:32;6.80;;;2.30;;
68250;SDS011;55066;51.560;4.642;2023-04-03T03:15:58;7.18;;;2.38;;
68250;SDS011;55066;51.560;4.642;2023-04-03T03:18:24;6.70;;;2.33;;
68250;SDS011;55066;51.560;4.642;2023-04-03T03:20:53;7.23;;;2.30;;
68250;SDS011;55066;51.560;4.642;2023-04-03T03:23:20;6.45;;;2.30;;
68250;SDS011;55066;51.560;4.642;2023-04-03T03:25:46;8.48;;;2.30;;
68250;SDS011;55066;51.560;4.642;2023-04-03T03:28:12;8.50;;;2.70;;
68250;SDS011;55066;51.560;4.642;2023-04-03T03:30:37;6.88;;;2.60;;
68250;SDS011;55066;51.560;4.642;2023-04-03T03:33:03;5.10;;;2.40;;
68250;SDS011;55066;51.560;4.642;2023-04-03T03:35:29;5.60;;;2.27;;
68250;SDS011;55066;51.560;4.642;2023-04-03T03:37:54;4.95;;;2.35;;
68250;SDS011;55066;51.560;4.642;2023-04-03T03:40:20;6.38;;;2.70;;
68250;SDS011;55066;51.560;4.642;2023-04-03T03:42:45;5.03;;;2.30;;
68250;SDS011;55066;51.560;4.642;2023-04-03T03:45:11;8.52;;;2.60;;
68250;SDS011;55066;51.560;4.642;2023-04-03T03:47:36;6.83;;;2.27;;
68250;SDS011;55066;51.560;4.642;2023-04-03T03:50:02;8.20;;;2.50;;
68250;SDS011;55066;51.560;4.642;2023-04-03T03:52:28;7.80;;;2.78;;
68250;SDS011;55066;51.560;4.642;2023-04-03T03:54:55;8.45;;;2.67;;
68250;SDS011;55066;51.560;4.642;2023-04-03T03:57:20;8.27;;;2.50;;
68250;SDS011;55066;51.560;4.642;2023-04-03T03:59:46;6.38;;;2.70;;
68250;SDS011;55066;51.560;4.642;2023-04-03T04:02:16;7.07;;;2.75;;
68250;SDS011;55066;51.560;4.642;2023-04-03T04:04:41;10.65;;;3.38;;
68250;SDS011;55066;51.560;4.642;2023-04-03T04:07:06;6.47;;;2.60;;
68250;SDS011;55066;51.560;4.642;2023-04-03T04:09:33;5.73;;;2.50;;
68250;SDS011;55066;51.560;4.642;2023-04-03T04:11:59;7.30;;;2.70;;
68250;SDS011;55066;51.560;4.642;2023-04-03T04:14:25;7.63;;;2.80;;
68250;SDS011;55066;51.560;4.642;2023-04-03T04:16:51;6.47;;;2.83;;
68250;SDS011;55066;51.560;4.642;2023-04-03T04:19:21;7.13;;;2.70;;
68250;SDS011;55066;51.560;4.642;2023-04-03T04:21:49;7.83;;;2.70;;
68250;SDS011;55066;51.560;4.642;2023-04-03T04:24:16;6.78;;;2.95;;
68250;SDS011;55066;51.560;4.642;2023-04-03T04:26:42;7.63;;;2.70;;
68250;SDS011;55066;51.560;4.642;2023-04-03T04:29:10;6.00;;;2.75;;
68250;SDS011;55066;51.560;4.642;2023-04-03T04:31:35;8.75;;;2.78;;
68250;SDS011;55066;51.560;4.642;2023-04-03T04:34:02;7.47;;;2.92;;
68250;SDS011;55066;51.560;4.642;2023-04-03T04:36:28;6.18;;;2.53;;
68250;SDS011;55066;51.560;4.642;2023-04-03T04:38:53;8.43;;;2.70;;
68250;SDS011;55066;51.560;4.642;2023-04-03T04:41:20;6.57;;;2.35;;
68250;SDS011;55066;51.560;4.642;2023-04-03T04:43:50;6.10;;;2.55;;
68250;SDS011;55066;51.560;4.642;2023-04-03T04:46:16;7.43;;;2.43;;
68250;SDS011;55066;51.560;4.642;2023-04-03T04:48:47;5.75;;;2.50;;
68250;SDS011;55066;51.560;4.642;2023-04-03T04:51:18;5.30;;;2.63;;
68250;SDS011;55066;51.560;4.642;2023-04-03T04:53:43;6.33;;;2.87;;
68250;SDS011;55066;51.560;4.642;2023-04-03T04:56:12;9.30;;;2.75;;
68250;SDS011;55066;51.560;4.642;2023-04-03T04:58:38;8.43;;;2.50;;
68250;SDS011;55066;51.560;4.642;2023-04-03T05:01:06;10.23;;;2.60;;
68250;SDS011;55066;51.560;4.642;2023-04-03T05:03:37;7.82;;;2.58;;
68250;SDS011;55066;51.560;4.642;2023-04-03T05:06:04;10.82;;;3.13;;
68250;SDS011;55066;51.560;4.642;2023-04-03T05:08:31;7.93;;;2.72;;
68250;SDS011;55066;51.560;4.642;2023-04-03T05:10:58;6.67;;;2.83;;
68250;SDS011;55066;51.560;4.642;2023-04-03T05:13:25;6.88;;;2.50;;
68250;SDS011;55066;51.560;4.642;2023-04-03T05:15:52;6.28;;;2.40;;
68250;SDS011;55066;51.560;4.642;2023-04-03T05:18:18;7.72;;;3.30;;
68250;SDS011;55066;51.560;4.642;2023-04-03T05:20:43;6.03;;;2.77;;
68250;SDS011;55066;51.560;4.642;2023-04-03T05:23:10;7.63;;;3.20;;
68250;SDS011;55066;51.560;4.642;2023-04-03T05:25:39;11.10;;;2.97;;
68250;SDS011;55066;51.560;4.642;2023-04-03T05:28:05;7.47;;;2.60;;
68250;SDS011;55066;51.560;4.642;2023-04-03T05:30:32;7.75;;;2.72;;
68250;SDS011;55066;51.560;4.642;2023-04-03T05:33:03;8.52;;;3.05;;
68250;SDS011;55066;51.560;4.642;2023-04-03T05:35:44;6.30;;;2.72;;
68250;SDS011;55066;51.560;4.642;2023-04-03T05:38:16;8.35;;;3.20;;
68250;SDS011;55066;51.560;4.642;2023-04-03T05:40:42;8.10;;;2.97;;
68250;SDS011;55066;51.560;4.642;2023-04-03T05:43:07;9.45;;;3.25;;
68250;SDS011;55066;51.560;4.642;2023-04-03T05:45:37;6.30;;;2.57;;
68250;SDS011;55066;51.560;4.642;2023-04-03T05:48:02;8.45;;;3.17;;
68250;SDS011;55066;51.560;4.642;2023-04-03T05:50:29;7.80;;;3.10;;
68250;SDS011;55066;51.560;4.642;2023-04-03T05:52:56;7.97;;;2.92;;
68250;SDS011;55066;51.560;4.642;2023-04-03T05:55:25;8.82;;;3.40;;
68250;SDS011;55066;51.560;4.642;2023-04-03T05:57:51;7.60;;;3.20;;
68250;SDS011;55066;51.560;4.642;2023-04-03T06:00:16;7.57;;;2.70;;
68250;SDS011;55066;51.560;4.642;2023-04-03T06:02:49;5.23;;;2.13;;
68250;SDS011;55066;51.560;4.642;2023-04-03T06:05:20;6.70;;;2.90;;
68250;SDS011;55066;51.560;4.642;2023-04-03T06:07:45;9.67;;;3.40;;
68250;SDS011;55066;51.560;4.642;2023-04-03T06:10:11;8.10;;;2.83;;
68250;SDS011;55066;51.560;4.642;2023-04-03T06:12:38;10.55;;;2.92;;
68250;SDS011;55066;51.560;4.642;2023-04-03T06:15:04;7.90;;;3.07;;
68250;SDS011;55066;51.560;4.642;2023-04-03T06:17:31;8.38;;;2.70;;
68250;SDS011;55066;51.560;4.642;2023-04-03T06:19:57;5.83;;;2.30;;
68250;SDS011;55066;51.560;4.642;2023-04-03T06:22:23;7.65;;;3.05;;
68250;SDS011;55066;51.560;4.642;2023-04-03T06:24:50;9.60;;;2.90;;
68250;SDS011;55066;51.560;4.642;2023-04-03T06:27:16;7.22;;;2.75;;
68250;SDS011;55066;51.560;4.642;2023-04-03T06:29:41;9.27;;;2.90;;
68250;SDS011;55066;51.560;4.642;2023-04-03T06:32:07;7.57;;;2.63;;
68250;SDS011;55066;51.560;4.642;2023-04-03T06:34:32;7.53;;;2.80;;
68250;SDS011;55066;51.560;4.642;2023-04-03T06:36:58;8.60;;;2.80;;
68250;SDS011;55066;51.560;4.642;2023-04-03T06:39:24;9.63;;;3.10;;
68250;SDS011;55066;51.560;4.642;2023-04-03T06:41:49;9.57;;;2.80;;
68250;SDS011;55066;51.560;4.642;2023-04-03T06:44:16;6.45;;;2.80;;
68250;SDS011;55066;51.560;4.642;2023-04-03T06:46:42;6.43;;;2.35;;
68250;SDS011;55066;51.560;4.642;2023-04-03T06:49:10;6.43;;;2.70;;
68250;SDS011;55066;51.560;4.642;2023-04-03T06:51:35;9.02;;;2.80;;
68250;SDS011;55066;51.560;4.642;2023-04-03T06:54:02;8.77;;;2.60;;
68250;SDS011;55066;51.560;4.642;2023-04-03T06:56:28;6.07;;;2.50;;
68250;SDS011;55066;51.560;4.642;2023-04-03T06:58:54;9.87;;;2.60;;
68250;SDS011;55066;51.560;4.642;2023-04-03T07:01:22;8.00;;;2.55;;
68250;SDS011;55066;51.560;4.642;2023-04-03T07:03:50;7.28;;;2.67;;
68250;SDS011;55066;51.560;4.642;2023-04-03T07:06:16;6.00;;;2.63;;
68250;SDS011;55066;51.560;4.642;2023-04-03T07:08:42;7.55;;;2.50;;
68250;SDS011;55066;51.560;4.642;2023-04-03T07:11:09;7.13;;;2.58;;
68250;SDS011;55066;51.560;4.642;2023-04-03T07:13:35;8.57;;;2.42;;
68250;SDS011;55066;51.560;4.642;2023-04-03T07:16:01;7.60;;;3.00;;
68250;SDS011;55066;51.560;4.642;2023-04-03T07:18:29;7.22;;;2.30;;
68250;SDS011;55066;51.560;4.642;2023-04-03T07:20:54;7.97;;;2.33;;
68250;SDS011;55066;51.560;4.642;2023-04-03T07:23:20;6.73;;;2.70;;
68250;SDS011;55066;51.560;4.642;2023-04-03T07:25:47;10.07;;;2.75;;
68250;SDS011;55066;51.560;4.642;2023-04-03T07:28:14;5.60;;;2.22;;
68250;SDS011;55066;51.560;4.642;2023-04-03T07:30:46;6.70;;;2.33;;
68250;SDS011;55066;51.560;4.642;2023-04-03T07:33:15;6.83;;;2.20;;
68250;SDS011;55066;51.560;4.642;2023-04-03T07:35:43;7.28;;;2.60;;
68250;SDS011;55066;51.560;4.642;2023-04-03T07:38:09;7.63;;;2.17;;
68250;SDS011;55066;51.560;4.642;2023-04-03T07:40:35;7.35;;;2.38;;
68250;SDS011;55066;51.560;4.642;2023-04-03T07:43:02;6.70;;;2.20;;
68250;SDS011;55066;51.560;4.642;2023-04-03T07:45:27;8.30;;;2.30;;
68250;SDS011;55066;51.560;4.642;2023-04-03T07:47:53;11.32;;;2.40;;
68250;SDS011;55066;51.560;4.642;2023-04-03T07:50:19;7.87;;;2.47;;
68250;SDS011;55066;51.560;4.642;2023-04-03T07:52:44;7.37;;;2.00;;
68250;SDS011;55066;51.560;4.642;2023-04-03T07:55:10;6.93;;;2.22;;
68250;SDS011;55066;51.560;4.642;2023-04-03T07:57:36;4.67;;;1.73;;
68250;SDS011;55066;51.560;4.642;2023-04-03T08:00:04;3.80;;;1.60;;
68250;SDS011;55066;51.560;4.642;2023-04-03T08:02:37;9.27;;;2.22;;
68250;SDS011;55066;51.560;4.642;2023-04-03T08:05:02;6.77;;;2.00;;
68250;SDS011;55066;51.560;4.642;2023-04-03T08:07:28;5.28;;;1.90;;
68250;SDS011;55066;51.560;4.642;2023-04-03T08:09:54;4.97;;;1.60;;
68250;SDS011;55066;51.560;4.642;2023-04-03T08:12:21;7.00;;;1.70;;
68250;SDS011;55066;51.560;4.642;2023-04-03T08:14:46;5.93;;;2.00;;
68250;SDS011;55066;51.560;4.642;2023-04-03T08:17:12;9.30;;;1.90;;
68250;SDS011;55066;51.560;4.642;2023-04-03T08:19:38;6.93;;;1.75;;
68250;SDS011;55066;51.560;4.642;2023-04-03T08:22:04;6.60;;;1.83;;
68250;SDS011;55066;51.560;4.642;2023-04-03T08:24:30;8.13;;;1.60;;
68250;SDS011;55066;51.560;4.642;2023-04-03T08:26:56;6.80;;;1.73;;
68250;SDS011;55066;51.560;4.642;2023-04-03T08:29:24;3.43;;;1.50;;
68250;SDS011;55066;51.560;4.642;2023-04-03T08:31:49;7.57;;;1.60;;
68250;SDS011;55066;51.560;4.642;2023-04-03T08:34:15;5.05;;;1.80;;
68250;SDS011;55066;51.560;4.642;2023-04-03T08:36:42;7.57;;;1.80;;
68250;SDS011;55066;51.560;4.642;2023-04-03T08:39:08;8.10;;;1.80;;
68250;SDS011;55066;51.560;4.642;2023-04-03T08:41:41;9.10;;;1.70;;
68250;SDS011;55066;51.560;4.642;2023-04-03T08:46:53;6.70;;;1.90;;
68250;SDS011;55066;51.560;4.642;2023-04-03T08:49:36;4.13;;;1.10;;
68250;SDS011;55066;51.560;4.642;2023-04-03T08:52:10;5.75;;;1.40;;
68250;SDS011;55066;51.560;4.642;2023-04-03T08:54:58;6.93;;;1.67;;
68250;SDS011;55066;51.560;4.642;2023-04-03T08:57:28;7.00;;;1.48;;
68250;SDS011;55066;51.560;4.642;2023-04-03T08:59:57;5.37;;;1.37;;
68250;SDS011;55066;51.560;4.642;2023-04-03T09:04:59;3.35;;;1.50;;
68250;SDS011;55066;51.560;4.642;2023-04-03T09:08:00;5.97;;;1.40;;
68250;SDS011;55066;51.560;4.642;2023-04-03T09:10:33;6.35;;;1.60;;
68250;SDS011;55066;51.560;4.642;2023-04-03T09:13:05;6.00;;;1.20;;
68250;SDS011;55066;51.560;4.642;2023-04-03T09:15:36;4.72;;;1.10;;
68250;SDS011;55066;51.560;4.642;2023-04-03T09:20:58;3.28;;;1.08;;
68250;SDS011;55066;51.560;4.642;2023-04-03T09:26:29;5.63;;;1.23;;
68250;SDS011;55066;51.560;4.642;2023-04-03T09:29:06;4.60;;;1.30;;
68250;SDS011;55066;51.560;4.642;2023-04-03T09:31:37;4.07;;;1.20;;
68250;SDS011;55066;51.560;4.642;2023-04-03T09:34:10;3.88;;;1.30;;
68250;SDS011;55066;51.560;4.642;2023-04-03T09:36:52;4.40;;;1.42;;
68250;SDS011;55066;51.560;4.642;2023-04-03T09:39:24;5.85;;;1.55;;
68250;SDS011;55066;51.560;4.642;2023-04-03T09:41:57;5.40;;;1.20;;
68250;SDS011;55066;51.560;4.642;2023-04-03T09:44:34;2.60;;;1.00;;
68250;SDS011;55066;51.560;4.642;2023-04-03T09:47:18;4.68;;;1.08;;
68250;SDS011;55066;51.560;4.642;2023-04-03T09:49:48;3.28;;;1.08;;
68250;SDS011;55066;51.560;4.642;2023-04-03T09:52:23;3.40;;;0.93;;
68250;SDS011;55066;51.560;4.642;2023-04-03T09:54:50;3.65;;;0.90;;
68250;SDS011;55066;51.560;4.642;2023-04-03T09:57:15;2.60;;;0.90;;
68250;SDS011;55066;51.560;4.642;2023-04-03T09:59:46;2.17;;;0.93;;
68250;SDS011;55066;51.560;4.642;2023-04-03T10:02:30;4.60;;;1.08;;
68250;SDS011;55066;51.560;4.642;2023-04-03T10:04:59;2.60;;;0.90;;
68250;SDS011;55066;51.560;4.642;2023-04-03T10:07:29;2.80;;;0.70;;
68250;SDS011;55066;51.560;4.642;2023-04-03T10:12:39;2.95;;;0.80;;
68250;SDS011;55066;51.560;4.642;2023-04-03T10:15:10;3.20;;;1.03;;
68250;SDS011;55066;51.560;4.642;2023-04-03T10:20:23;3.88;;;0.80;;
68250;SDS011;55066;51.560;4.642;2023-04-03T10:23:14;2.90;;;1.00;;
68250;SDS011;55066;51.560;4.642;2023-04-03T10:25:59;1.90;;;0.80;;
68250;SDS011;55066;51.560;4.642;2023-04-03T10:31:22;2.50;;;0.80;;
68250;SDS011;55066;51.560;4.642;2023-04-03T10:34:06;2.38;;;0.90;;
68250;SDS011;55066;51.560;4.642;2023-04-03T10:36:53;2.63;;;0.75;;
68250;SDS011;55066;51.560;4.642;2023-04-03T10:39:39;2.20;;;0.70;;
68250;SDS011;55066;51.560;4.642;2023-04-03T10:50:44;3.25;;;0.73;;
68250;SDS011;55066;51.560;4.642;2023-04-03T10:53:34;3.65;;;0.82;;
68250;SDS011;55066;51.560;4.642;2023-04-03T10:56:29;2.15;;;0.80;;
68250;SDS011;55066;51.560;4.642;2023-04-03T11:01:49;2.10;;;0.73;;
68250;SDS011;55066;51.560;4.642;2023-04-03T11:04:19;2.70;;;0.80;;
68250;SDS011;55066;51.560;4.642;2023-04-03T11:06:57;3.08;;;0.80;;
68250;SDS011;55066;51.560;4.642;2023-04-03T11:09:33;1.70;;;0.70;;
68250;SDS011;55066;51.560;4.642;2023-04-03T11:12:11;1.92;;;0.73;;
68250;SDS011;55066;51.560;4.642;2023-04-03T11:14:40;3.10;;;0.90;;
68250;SDS011;55066;51.560;4.642;2023-04-03T11:20:17;4.35;;;0.70;;
68250;SDS011;55066;51.560;4.642;2023-04-03T11:22:42;4.63;;;0.80;;
68250;SDS011;55066;51.560;4.642;2023-04-03T11:30:27;2.97;;;0.70;;
68250;SDS011;55066;51.560;4.642;2023-04-03T11:33:13;2.50;;;0.70;;
68250;SDS011;55066;51.560;4.642;2023-04-03T11:36:01;2.70;;;0.70;;
68250;SDS011;55066;51.560;4.642;2023-04-03T11:38:33;2.85;;;0.90;;
68250;SDS011;55066;51.560;4.642;2023-04-03T11:41:02;1.58;;;0.50;;
68250;SDS011;55066;51.560;4.642;2023-04-03T11:43:30;2.80;;;0.77;;
68250;SDS011;55066;51.560;4.642;2023-04-03T11:46:00;2.30;;;0.70;;
68250;SDS011;55066;51.560;4.642;2023-04-03T11:51:00;2.80;;;0.77;;
68250;SDS011;55066;51.560;4.642;2023-04-03T11:53:37;1.85;;;0.70;;
68250;SDS011;55066;51.560;4.642;2023-04-03T12:04:27;2.83;;;0.65;;
68250;SDS011;55066;51.560;4.642;2023-04-03T12:07:01;4.60;;;0.70;;
68250;SDS011;55066;51.560;4.642;2023-04-03T12:12:33;2.53;;;0.50;;
68250;SDS011;55066;51.560;4.642;2023-04-03T12:15:21;2.65;;;0.60;;
68250;SDS011;55066;51.560;4.642;2023-04-03T12:21:06;2.58;;;0.60;;
68250;SDS011;55066;51.560;4.642;2023-04-03T12:23:32;3.73;;;0.80;;
68250;SDS011;55066;51.560;4.642;2023-04-03T12:26:01;6.32;;;0.60;;
68250;SDS011;55066;51.560;4.642;2023-04-03T12:28:31;2.40;;;0.73;;
68250;SDS011;55066;51.560;4.642;2023-04-03T12:31:02;1.40;;;0.57;;
68250;SDS011;55066;51.560;4.642;2023-04-03T12:41:51;3.35;;;0.60;;
68250;SDS011;55066;51.560;4.642;2023-04-03T12:47:48;4.43;;;1.20;;
68250;SDS011;55066;51.560;4.642;2023-04-03T12:50:17;2.28;;;0.80;;
68250;SDS011;55066;51.560;4.642;2023-04-03T12:55:30;2.00;;;0.63;;
68250;SDS011;55066;51.560;4.642;2023-04-03T12:57:55;1.50;;;0.60;;
68250;SDS011;55066;51.560;4.642;2023-04-03T13:03:01;2.65;;;0.90;;
68250;SDS011;55066;51.560;4.642;2023-04-03T13:05:28;1.90;;;0.80;;
68250;SDS011;55066;51.560;4.642;2023-04-03T13:07:59;2.00;;;0.65;;
68250;SDS011;55066;51.560;4.642;2023-04-03T13:10:28;2.63;;;0.80;;
68250;SDS011;55066;51.560;4.642;2023-04-03T13:12:58;2.67;;;0.93;;
68250;SDS011;55066;51.560;4.642;2023-04-03T13:15:42;2.45;;;0.93;;
68250;SDS011;55066;51.560;4.642;2023-04-03T13:18:31;4.95;;;1.00;;
68250;SDS011;55066;51.560;4.642;2023-04-03T13:21:02;2.63;;;0.70;;
68250;SDS011;55066;51.560;4.642;2023-04-03T13:23:30;4.43;;;0.90;;
68250;SDS011;55066;51.560;4.642;2023-04-03T13:25:58;1.88;;;0.80;;
68250;SDS011;55066;51.560;4.642;2023-04-03T13:28:28;3.58;;;0.85;;
68250;SDS011;55066;51.560;4.642;2023-04-03T13:33:59;3.90;;;0.82;;
68250;SDS011;55066;51.560;4.642;2023-04-03T13:36:31;2.03;;;0.80;;
68250;SDS011;55066;51.560;4.642;2023-04-03T13:39:00;2.50;;;0.90;;
68250;SDS011;55066;51.560;4.642;2023-04-03T13:41:33;2.03;;;0.82;;
68250;SDS011;55066;51.560;4.642;2023-04-03T13:46:49;2.85;;;0.95;;
68250;SDS011;55066;51.560;4.642;2023-04-03T13:49:40;2.10;;;0.90;;
68250;SDS011;55066;51.560;4.642;2023-04-03T13:54:45;2.10;;;0.80;;
68250;SDS011;55066;51.560;4.642;2023-04-03T13:57:13;3.08;;;0.80;;
68250;SDS011;55066;51.560;4.642;2023-04-03T13:59:41;1.90;;;0.70;;
68250;SDS011;55066;51.560;4.642;2023-04-03T14:07:02;2.73;;;0.90;;
68250;SDS011;55066;51.560;4.642;2023-04-03T14:09:28;3.97;;;1.10;;
68250;SDS011;55066;51.560;4.642;2023-04-03T14:12:02;3.20;;;1.00;;
68250;SDS011;55066;51.560;4.642;2023-04-03T14:14:33;4.40;;;1.20;;
68250;SDS011;55066;51.560;4.642;2023-04-03T14:17:01;6.40;;;1.25;;
68250;SDS011;55066;51.560;4.642;2023-04-03T14:19:30;2.73;;;1.13;;
68250;SDS011;55066;51.560;4.642;2023-04-03T14:21:57;2.95;;;1.02;;
68250;SDS011;55066;51.560;4.642;2023-04-03T14:24:24;3.35;;;1.23;;
68250;SDS011;55066;51.560;4.642;2023-04-03T14:26:50;2.80;;;0.80;;
68250;SDS011;55066;51.560;4.642;2023-04-03T14:29:17;3.72;;;1.17;;
68250;SDS011;55066;51.560;4.642;2023-04-03T14:31:45;5.07;;;1.20;;
68250;SDS011;55066;51.560;4.642;2023-04-03T14:34:12;4.38;;;1.08;;
68250;SDS011;55066;51.560;4.642;2023-04-03T14:36:39;2.30;;;1.00;;
68250;SDS011;55066;51.560;4.642;2023-04-03T14:39:07;3.53;;;1.10;;
68250;SDS011;55066;51.560;4.642;2023-04-03T14:41:35;2.70;;;0.98;;
68250;SDS011;55066;51.560;4.642;2023-04-03T14:44:01;4.57;;;1.23;;
68250;SDS011;55066;51.560;4.642;2023-04-03T14:46:28;3.17;;;1.20;;
68250;SDS011;55066;51.560;4.642;2023-04-03T14:48:56;5.10;;;1.25;;
68250;SDS011;55066;51.560;4.642;2023-04-03T14:51:22;2.17;;;1.00;;
68250;SDS011;55066;51.560;4.642;2023-04-03T14:53:47;4.60;;;1.00;;
68250;SDS011;55066;51.560;4.642;2023-04-03T14:56:20;5.68;;;1.30;;
68250;SDS011;55066;51.560;4.642;2023-04-03T14:58:49;3.25;;;1.10;;
68250;SDS011;55066;51.560;4.642;2023-04-03T15:01:17;4.00;;;1.00;;
68250;SDS011;55066;51.560;4.642;2023-04-03T15:03:44;3.85;;;1.20;;
68250;SDS011;55066;51.560;4.642;2023-04-03T15:06:12;3.58;;;1.10;;
68250;SDS011;55066;51.560;4.642;2023-04-03T15:08:39;4.20;;;1.30;;
68250;SDS011;55066;51.560;4.642;2023-04-03T15:11:06;3.35;;;1.20;;
68250;SDS011;55066;51.560;4.642;2023-04-03T15:13:32;3.87;;;1.17;;
68250;SDS011;55066;51.560;4.642;2023-04-03T15:15:57;4.00;;;1.42;;
68250;SDS011;55066;51.560;4.642;2023-04-03T15:18:24;4.90;;;1.20;;
68250;SDS011;55066;51.560;4.642;2023-04-03T15:20:54;3.85;;;1.48;;
68250;SDS011;55066;51.560;4.642;2023-04-03T15:23:20;2.70;;;1.10;;
68250;SDS011;55066;51.560;4.642;2023-04-03T15:25:51;3.67;;;1.10;;
68250;SDS011;55066;51.560;4.642;2023-04-03T15:28:19;4.13;;;1.30;;
68250;SDS011;55066;51.560;4.642;2023-04-03T15:30:48;2.78;;;0.95;;
68250;SDS011;55066;51.560;4.642;2023-04-03T15:33:14;3.53;;;1.23;;
68250;SDS011;55066;51.560;4.642;2023-04-03T15:35:41;3.85;;;1.20;;
68250;SDS011;55066;51.560;4.642;2023-04-03T15:38:07;4.13;;;1.33;;
68250;SDS011;55066;51.560;4.642;2023-04-03T15:40:32;4.05;;;1.13;;
68250;SDS011;55066;51.560;4.642;2023-04-03T15:42:58;4.20;;;1.30;;
68250;SDS011;55066;51.560;4.642;2023-04-03T15:45:23;3.15;;;1.10;;
68250;SDS011;55066;51.560;4.642;2023-04-03T15:47:49;5.47;;;1.50;;
68250;SDS011;55066;51.560;4.642;2023-04-03T15:50:15;5.78;;;1.20;;
68250;SDS011;55066;51.560;4.642;2023-04-03T15:52:41;3.97;;;1.20;;
68250;SDS011;55066;51.560;4.642;2023-04-03T15:55:06;3.10;;;1.10;;
68250;SDS011;55066;51.560;4.642;2023-04-03T15:57:31;9.02;;;1.30;;
68250;SDS011;55066;51.560;4.642;2023-04-03T15:59:57;3.23;;;1.00;;
68250;SDS011;55066;51.560;4.642;2023-04-03T16:02:22;3.00;;;1.20;;
68250;SDS011;55066;51.560;4.642;2023-04-03T16:04:48;3.87;;;1.20;;
68250;SDS011;55066;51.560;4.642;2023-04-03T16:07:14;4.28;;;1.30;;
68250;SDS011;55066;51.560;4.642;2023-04-03T16:09:39;4.47;;;1.40;;
68250;SDS011;55066;51.560;4.642;2023-04-03T16:12:05;3.85;;;1.30;;
68250;SDS011;55066;51.560;4.642;2023-04-03T16:14:30;4.77;;;1.30;;
68250;SDS011;55066;51.560;4.642;2023-04-03T16:16:56;2.57;;;1.00;;
68250;SDS011;55066;51.560;4.642;2023-04-03T16:19:23;5.93;;;1.33;;
68250;SDS011;55066;51.560;4.642;2023-04-03T16:21:48;3.73;;;1.30;;
68250;SDS011;55066;51.560;4.642;2023-04-03T16:24:14;3.97;;;1.10;;
68250;SDS011;55066;51.560;4.642;2023-04-03T16:26:39;4.07;;;1.20;;